sensor_id;sensor_type;location;lat;lon;timestamp;P1;durP1;ratioP1;P2;durP2;ratioP2
42196;SDS011;27866;48.146;17.098;2023-04-25T00:03:59;3.45;;;2.20;;
42196;SDS011;27866;48.146;17.098;2023-04-25T00:08:11;3.67;;;1.73;;
42196;SDS011;27866;48.146;17.098;2023-04-25T00:12:22;2.35;;;1.77;;
42196;SDS011;27866;48.146;17.098;2023-04-25T00:16:33;1.85;;;1.70;;
42196;SDS011;27866;48.146;17.098;2023-04-25T00:20:45;2.10;;;1.60;;
42196;SDS011;27866;48.146;17.098;2023-04-25T00:24:57;2.47;;;1.75;;
42196;SDS011;27866;48.146;17.098;2023-04-25T00:29:10;3.92;;;2.08;;
42196;SDS011;27866;48.146;17.098;2023-04-25T00:33:22;3.10;;;1.98;;
42196;SDS011;27866;48.146;17.098;2023-04-25T00:37:33;2.60;;;1.83;;
42196;SDS011;27866;48.146;17.098;2023-04-25T00:41:45;2.70;;;1.90;;
42196;SDS011;27866;48.146;17.098;2023-04-25T00:45:56;4.47;;;2.15;;
42196;SDS011;27866;48.146;17.098;2023-04-25T00:50:08;2.75;;;2.00;;
42196;SDS011;27866;48.146;17.098;2023-04-25T00:54:20;3.90;;;2.08;;
42196;SDS011;27866;48.146;17.098;2023-04-25T00:58:32;3.80;;;2.13;;
42196;SDS011;27866;48.146;17.098;2023-04-25T01:02:43;3.78;;;2.20;;
42196;SDS011;27866;48.146;17.098;2023-04-25T01:06:55;2.67;;;2.10;;
42196;SDS011;27866;48.146;17.098;2023-04-25T01:11:08;2.97;;;2.00;;
42196;SDS011;27866;48.146;17.098;2023-04-25T01:15:19;4.30;;;2.00;;
42196;SDS011;27866;48.146;17.098;2023-04-25T01:19:31;3.33;;;2.03;;
42196;SDS011;27866;48.146;17.098;2023-04-25T01:23:42;3.63;;;2.30;;
42196;SDS011;27866;48.146;17.098;2023-04-25T01:27:54;3.83;;;2.30;;
42196;SDS011;27866;48.146;17.098;2023-04-25T01:32:06;3.17;;;2.17;;
42196;SDS011;27866;48.146;17.098;2023-04-25T01:36:18;6.07;;;2.05;;
42196;SDS011;27866;48.146;17.098;2023-04-25T01:40:30;3.30;;;2.28;;
42196;SDS011;27866;48.146;17.098;2023-04-25T01:44:43;3.60;;;2.00;;
42196;SDS011;27866;48.146;17.098;2023-04-25T01:48:55;3.78;;;2.10;;
42196;SDS011;27866;48.146;17.098;2023-04-25T01:53:06;3.00;;;2.20;;
42196;SDS011;27866;48.146;17.098;2023-04-25T01:57:19;3.60;;;2.08;;
42196;SDS011;27866;48.146;17.098;2023-04-25T02:01:31;4.00;;;2.30;;
42196;SDS011;27866;48.146;17.098;2023-04-25T02:05:58;3.20;;;2.30;;
42196;SDS011;27866;48.146;17.098;2023-04-25T02:10:11;2.78;;;2.30;;
42196;SDS011;27866;48.146;17.098;2023-04-25T02:14:35;4.18;;;2.33;;
42196;SDS011;27866;48.146;17.098;2023-04-25T02:18:51;3.75;;;2.22;;
42196;SDS011;27866;48.146;17.098;2023-04-25T02:23:03;3.38;;;2.10;;
42196;SDS011;27866;48.146;17.098;2023-04-25T02:27:15;3.45;;;2.05;;
42196;SDS011;27866;48.146;17.098;2023-04-25T02:31:27;2.70;;;2.00;;
42196;SDS011;27866;48.146;17.098;2023-04-25T02:35:38;3.13;;;2.25;;
42196;SDS011;27866;48.146;17.098;2023-04-25T02:39:49;2.33;;;1.80;;
42196;SDS011;27866;48.146;17.098;2023-04-25T02:44:00;2.50;;;1.92;;
42196;SDS011;27866;48.146;17.098;2023-04-25T02:48:12;2.97;;;2.00;;
42196;SDS011;27866;48.146;17.098;2023-04-25T02:52:23;2.58;;;1.90;;
42196;SDS011;27866;48.146;17.098;2023-04-25T02:56:43;3.05;;;2.25;;
42196;SDS011;27866;48.146;17.098;2023-04-25T03:01:00;3.28;;;2.20;;
42196;SDS011;27866;48.146;17.098;2023-04-25T03:05:11;3.92;;;2.13;;
42196;SDS011;27866;48.146;17.098;2023-04-25T03:09:23;2.83;;;2.20;;
42196;SDS011;27866;48.146;17.098;2023-04-25T03:13:36;3.00;;;2.20;;
42196;SDS011;27866;48.146;17.098;2023-04-25T03:17:48;2.50;;;1.90;;
42196;SDS011;27866;48.146;17.098;2023-04-25T03:21:59;3.40;;;2.40;;
42196;SDS011;27866;48.146;17.098;2023-04-25T03:26:10;3.28;;;2.20;;
42196;SDS011;27866;48.146;17.098;2023-04-25T03:30:22;2.92;;;2.20;;
42196;SDS011;27866;48.146;17.098;2023-04-25T03:34:33;3.60;;;2.40;;
42196;SDS011;27866;48.146;17.098;2023-04-25T03:38:45;3.08;;;2.10;;
42196;SDS011;27866;48.146;17.098;2023-04-25T03:42:59;3.78;;;2.33;;
42196;SDS011;27866;48.146;17.098;2023-04-25T03:47:10;3.17;;;2.28;;
42196;SDS011;27866;48.146;17.098;2023-04-25T03:51:22;4.65;;;2.90;;
42196;SDS011;27866;48.146;17.098;2023-04-25T03:55:33;4.22;;;2.65;;
42196;SDS011;27866;48.146;17.098;2023-04-25T03:59:45;4.68;;;2.45;;
42196;SDS011;27866;48.146;17.098;2023-04-25T04:03:58;5.45;;;2.70;;
42196;SDS011;27866;48.146;17.098;2023-04-25T04:08:11;3.42;;;2.50;;
42196;SDS011;27866;48.146;17.098;2023-04-25T04:12:24;4.80;;;2.67;;
42196;SDS011;27866;48.146;17.098;2023-04-25T04:16:35;4.20;;;2.95;;
42196;SDS011;27866;48.146;17.098;2023-04-25T04:20:47;3.78;;;2.60;;
42196;SDS011;27866;48.146;17.098;2023-04-25T04:24:58;4.80;;;2.72;;
42196;SDS011;27866;48.146;17.098;2023-04-25T04:29:45;3.72;;;2.75;;
42196;SDS011;27866;48.146;17.098;2023-04-25T04:34:00;4.80;;;2.88;;
42196;SDS011;27866;48.146;17.098;2023-04-25T04:38:14;5.82;;;3.00;;
42196;SDS011;27866;48.146;17.098;2023-04-25T04:42:26;4.88;;;2.65;;
42196;SDS011;27866;48.146;17.098;2023-04-25T04:46:50;3.53;;;2.63;;
42196;SDS011;27866;48.146;17.098;2023-04-25T04:51:37;7.72;;;3.10;;
42196;SDS011;27866;48.146;17.098;2023-04-25T04:56:12;3.67;;;2.50;;
42196;SDS011;27866;48.146;17.098;2023-04-25T05:00:36;5.57;;;2.35;;
42196;SDS011;27866;48.146;17.098;2023-04-25T05:05:14;5.13;;;2.72;;
42196;SDS011;27866;48.146;17.098;2023-04-25T05:10:01;4.72;;;2.50;;
42196;SDS011;27866;48.146;17.098;2023-04-25T05:14:39;9.43;;;2.78;;
42196;SDS011;27866;48.146;17.098;2023-04-25T05:19:11;6.50;;;2.55;;
42196;SDS011;27866;48.146;17.098;2023-04-25T05:23:32;4.30;;;2.70;;
42196;SDS011;27866;48.146;17.098;2023-04-25T05:27:54;5.97;;;2.50;;
42196;SDS011;27866;48.146;17.098;2023-04-25T05:32:22;4.72;;;2.70;;
42196;SDS011;27866;48.146;17.098;2023-04-25T05:36:34;3.30;;;2.67;;
42196;SDS011;27866;48.146;17.098;2023-04-25T05:40:45;4.78;;;2.60;;
42196;SDS011;27866;48.146;17.098;2023-04-25T05:45:16;3.63;;;2.67;;
42196;SDS011;27866;48.146;17.098;2023-04-25T05:49:41;8.00;;;3.10;;
42196;SDS011;27866;48.146;17.098;2023-04-25T05:54:13;7.22;;;3.50;;
42196;SDS011;27866;48.146;17.098;2023-04-25T05:58:24;5.15;;;2.92;;
42196;SDS011;27866;48.146;17.098;2023-04-25T06:02:37;4.78;;;2.90;;
42196;SDS011;27866;48.146;17.098;2023-04-25T06:06:49;3.75;;;2.72;;
42196;SDS011;27866;48.146;17.098;2023-04-25T06:11:00;5.72;;;3.38;;
42196;SDS011;27866;48.146;17.098;2023-04-25T06:15:12;5.22;;;3.30;;
42196;SDS011;27866;48.146;17.098;2023-04-25T06:19:23;5.43;;;3.40;;
42196;SDS011;27866;48.146;17.098;2023-04-25T06:23:34;5.38;;;3.35;;
42196;SDS011;27866;48.146;17.098;2023-04-25T06:27:48;5.75;;;4.13;;
42196;SDS011;27866;48.146;17.098;2023-04-25T06:32:00;4.38;;;3.22;;
42196;SDS011;27866;48.146;17.098;2023-04-25T06:36:12;6.80;;;4.07;;
42196;SDS011;27866;48.146;17.098;2023-04-25T06:40:25;3.65;;;3.03;;
42196;SDS011;27866;48.146;17.098;2023-04-25T06:44:36;5.55;;;3.08;;
42196;SDS011;27866;48.146;17.098;2023-04-25T06:48:52;6.13;;;3.08;;
42196;SDS011;27866;48.146;17.098;2023-04-25T06:53:04;7.60;;;3.20;;
42196;SDS011;27866;48.146;17.098;2023-04-25T06:57:15;5.20;;;3.20;;
42196;SDS011;27866;48.146;17.098;2023-04-25T07:01:27;6.22;;;3.20;;
42196;SDS011;27866;48.146;17.098;2023-04-25T07:05:39;7.55;;;3.53;;
42196;SDS011;27866;48.146;17.098;2023-04-25T07:09:51;7.03;;;3.33;;
42196;SDS011;27866;48.146;17.098;2023-04-25T07:14:02;6.90;;;3.45;;
42196;SDS011;27866;48.146;17.098;2023-04-25T07:18:14;6.20;;;3.35;;
42196;SDS011;27866;48.146;17.098;2023-04-25T07:22:26;11.52;;;3.90;;
42196;SDS011;27866;48.146;17.098;2023-04-25T07:26:37;9.02;;;3.60;;
42196;SDS011;27866;48.146;17.098;2023-04-25T07:31:15;14.65;;;4.32;;
42196;SDS011;27866;48.146;17.098;2023-04-25T07:35:28;9.90;;;4.00;;
42196;SDS011;27866;48.146;17.098;2023-04-25T07:39:39;6.85;;;3.50;;
42196;SDS011;27866;48.146;17.098;2023-04-25T07:43:51;8.27;;;3.38;;
42196;SDS011;27866;48.146;17.098;2023-04-25T07:48:03;7.30;;;3.50;;
42196;SDS011;27866;48.146;17.098;2023-04-25T07:52:18;10.98;;;3.65;;
42196;SDS011;27866;48.146;17.098;2023-04-25T07:56:38;12.98;;;3.92;;
42196;SDS011;27866;48.146;17.098;2023-04-25T08:00:49;16.35;;;3.78;;
42196;SDS011;27866;48.146;17.098;2023-04-25T08:05:24;6.60;;;2.83;;
42196;SDS011;27866;48.146;17.098;2023-04-25T08:09:43;5.78;;;3.50;;
42196;SDS011;27866;48.146;17.098;2023-04-25T08:14:02;4.85;;;3.28;;
42196;SDS011;27866;48.146;17.098;2023-04-25T08:18:14;5.93;;;2.95;;
42196;SDS011;27866;48.146;17.098;2023-04-25T08:22:29;5.75;;;3.10;;
42196;SDS011;27866;48.146;17.098;2023-04-25T08:27:00;7.32;;;3.95;;
42196;SDS011;27866;48.146;17.098;2023-04-25T08:31:13;4.77;;;2.80;;
42196;SDS011;27866;48.146;17.098;2023-04-25T08:35:36;4.82;;;3.00;;
42196;SDS011;27866;48.146;17.098;2023-04-25T08:39:48;4.72;;;2.63;;
42196;SDS011;27866;48.146;17.098;2023-04-25T08:44:02;4.70;;;3.00;;
42196;SDS011;27866;48.146;17.098;2023-04-25T08:52:29;5.85;;;3.20;;
42196;SDS011;27866;48.146;17.098;2023-04-25T08:56:47;5.55;;;2.47;;
42196;SDS011;27866;48.146;17.098;2023-04-25T09:00:59;5.50;;;2.80;;
42196;SDS011;27866;48.146;17.098;2023-04-25T09:05:14;6.75;;;3.15;;
42196;SDS011;27866;48.146;17.098;2023-04-25T09:09:26;11.27;;;3.25;;
42196;SDS011;27866;48.146;17.098;2023-04-25T09:13:38;11.98;;;2.90;;
42196;SDS011;27866;48.146;17.098;2023-04-25T09:18:09;8.80;;;3.05;;
42196;SDS011;27866;48.146;17.098;2023-04-25T09:22:25;4.90;;;3.03;;
42196;SDS011;27866;48.146;17.098;2023-04-25T09:26:37;7.97;;;3.03;;
42196;SDS011;27866;48.146;17.098;2023-04-25T09:30:48;8.52;;;3.03;;
42196;SDS011;27866;48.146;17.098;2023-04-25T09:35:08;4.10;;;2.90;;
42196;SDS011;27866;48.146;17.098;2023-04-25T09:39:20;5.82;;;3.13;;
42196;SDS011;27866;48.146;17.098;2023-04-25T09:43:41;3.47;;;2.63;;
42196;SDS011;27866;48.146;17.098;2023-04-25T09:48:02;5.32;;;2.60;;
42196;SDS011;27866;48.146;17.098;2023-04-25T09:52:20;3.83;;;2.50;;
42196;SDS011;27866;48.146;17.098;2023-04-25T09:56:43;4.25;;;2.60;;
42196;SDS011;27866;48.146;17.098;2023-04-25T10:01:02;5.07;;;2.30;;
42196;SDS011;27866;48.146;17.098;2023-04-25T10:09:49;8.85;;;2.90;;
42196;SDS011;27866;48.146;17.098;2023-04-25T10:14:13;4.85;;;2.80;;
42196;SDS011;27866;48.146;17.098;2023-04-25T10:18:25;4.38;;;2.28;;
42196;SDS011;27866;48.146;17.098;2023-04-25T10:22:44;4.18;;;2.53;;
42196;SDS011;27866;48.146;17.098;2023-04-25T10:26:58;4.65;;;2.08;;
42196;SDS011;27866;48.146;17.098;2023-04-25T10:31:10;5.43;;;2.60;;
42196;SDS011;27866;48.146;17.098;2023-04-25T10:35:28;5.63;;;2.53;;
42196;SDS011;27866;48.146;17.098;2023-04-25T10:39:41;3.47;;;2.33;;
42196;SDS011;27866;48.146;17.098;2023-04-25T10:43:59;4.30;;;2.50;;
42196;SDS011;27866;48.146;17.098;2023-04-25T10:48:26;6.97;;;2.72;;
42196;SDS011;27866;48.146;17.098;2023-04-25T10:52:41;7.03;;;2.55;;
42196;SDS011;27866;48.146;17.098;2023-04-25T10:56:53;4.47;;;2.50;;
42196;SDS011;27866;48.146;17.098;2023-04-25T11:01:04;3.92;;;2.92;;
42196;SDS011;27866;48.146;17.098;2023-04-25T11:05:25;4.90;;;3.15;;
42196;SDS011;27866;48.146;17.098;2023-04-25T11:09:46;4.82;;;2.70;;
42196;SDS011;27866;48.146;17.098;2023-04-25T11:13:58;4.53;;;2.60;;
42196;SDS011;27866;48.146;17.098;2023-04-25T11:18:09;3.33;;;2.20;;
42196;SDS011;27866;48.146;17.098;2023-04-25T11:22:21;3.05;;;2.10;;
42196;SDS011;27866;48.146;17.098;2023-04-25T11:26:33;9.65;;;2.45;;
42196;SDS011;27866;48.146;17.098;2023-04-25T11:30:47;4.05;;;1.85;;
42196;SDS011;27866;48.146;17.098;2023-04-25T11:35:00;4.63;;;1.77;;
42196;SDS011;27866;48.146;17.098;2023-04-25T11:39:12;3.17;;;1.60;;
42196;SDS011;27866;48.146;17.098;2023-04-25T11:43:23;5.00;;;1.70;;
42196;SDS011;27866;48.146;17.098;2023-04-25T11:47:36;4.93;;;1.83;;
42196;SDS011;27866;48.146;17.098;2023-04-25T11:51:48;2.95;;;1.58;;
42196;SDS011;27866;48.146;17.098;2023-04-25T11:56:00;1.90;;;1.63;;
42196;SDS011;27866;48.146;17.098;2023-04-25T12:00:19;4.72;;;2.08;;
42196;SDS011;27866;48.146;17.098;2023-04-25T12:04:32;7.15;;;1.75;;
42196;SDS011;27866;48.146;17.098;2023-04-25T12:09:01;6.57;;;2.50;;
42196;SDS011;27866;48.146;17.098;2023-04-25T12:13:20;12.40;;;2.28;;
42196;SDS011;27866;48.146;17.098;2023-04-25T12:17:34;8.27;;;2.10;;
42196;SDS011;27866;48.146;17.098;2023-04-25T12:21:46;8.70;;;2.08;;
42196;SDS011;27866;48.146;17.098;2023-04-25T12:25:58;7.75;;;2.15;;
42196;SDS011;27866;48.146;17.098;2023-04-25T12:30:13;5.22;;;2.42;;
42196;SDS011;27866;48.146;17.098;2023-04-25T12:34:24;13.15;;;3.10;;
42196;SDS011;27866;48.146;17.098;2023-04-25T12:38:37;4.50;;;2.10;;
42196;SDS011;27866;48.146;17.098;2023-04-25T12:42:50;3.88;;;1.77;;
42196;SDS011;27866;48.146;17.098;2023-04-25T12:47:01;3.28;;;1.80;;
42196;SDS011;27866;48.146;17.098;2023-04-25T12:51:14;6.30;;;2.60;;
42196;SDS011;27866;48.146;17.098;2023-04-25T12:55:25;2.00;;;1.60;;
42196;SDS011;27866;48.146;17.098;2023-04-25T12:59:37;4.07;;;1.80;;
42196;SDS011;27866;48.146;17.098;2023-04-25T13:03:48;6.93;;;1.75;;
42196;SDS011;27866;48.146;17.098;2023-04-25T13:08:00;2.92;;;1.65;;
42196;SDS011;27866;48.146;17.098;2023-04-25T13:12:11;4.97;;;1.95;;
42196;SDS011;27866;48.146;17.098;2023-04-25T13:16:22;4.03;;;1.52;;
42196;SDS011;27866;48.146;17.098;2023-04-25T13:20:34;3.97;;;1.88;;
42196;SDS011;27866;48.146;17.098;2023-04-25T13:24:45;3.85;;;1.70;;
42196;SDS011;27866;48.146;17.098;2023-04-25T13:28:57;3.50;;;2.67;;
42196;SDS011;27866;48.146;17.098;2023-04-25T13:33:08;2.67;;;2.47;;
42196;SDS011;27866;48.146;17.098;2023-04-25T13:37:20;2.22;;;1.30;;
42196;SDS011;27866;48.146;17.098;2023-04-25T13:45:45;3.60;;;1.50;;
42196;SDS011;27866;48.146;17.098;2023-04-25T13:49:57;3.63;;;1.40;;
42196;SDS011;27866;48.146;17.098;2023-04-25T13:54:08;6.43;;;1.85;;
42196;SDS011;27866;48.146;17.098;2023-04-25T13:58:19;5.70;;;2.10;;
42196;SDS011;27866;48.146;17.098;2023-04-25T14:02:31;5.65;;;1.67;;
42196;SDS011;27866;48.146;17.098;2023-04-25T14:06:42;13.88;;;1.80;;
42196;SDS011;27866;48.146;17.098;2023-04-25T14:10:54;8.80;;;1.55;;
42196;SDS011;27866;48.146;17.098;2023-04-25T14:15:05;6.47;;;1.83;;
42196;SDS011;27866;48.146;17.098;2023-04-25T14:19:17;2.42;;;1.83;;
42196;SDS011;27866;48.146;17.098;2023-04-25T14:23:28;18.33;;;2.72;;
42196;SDS011;27866;48.146;17.098;2023-04-25T14:27:40;14.00;;;2.47;;
42196;SDS011;27866;48.146;17.098;2023-04-25T14:31:51;6.43;;;1.73;;
42196;SDS011;27866;48.146;17.098;2023-04-25T14:36:04;6.32;;;1.70;;
42196;SDS011;27866;48.146;17.098;2023-04-25T14:40:15;1.60;;;1.50;;
42196;SDS011;27866;48.146;17.098;2023-04-25T14:44:27;2.38;;;1.63;;
42196;SDS011;27866;48.146;17.098;2023-04-25T14:48:38;1.63;;;1.30;;
42196;SDS011;27866;48.146;17.098;2023-04-25T14:52:50;4.78;;;1.38;;
42196;SDS011;27866;48.146;17.098;2023-04-25T14:57:03;4.63;;;1.63;;
42196;SDS011;27866;48.146;17.098;2023-04-25T15:01:14;6.45;;;1.63;;
42196;SDS011;27866;48.146;17.098;2023-04-25T15:05:26;4.53;;;1.70;;
42196;SDS011;27866;48.146;17.098;2023-04-25T15:09:37;3.97;;;1.15;;
42196;SDS011;27866;48.146;17.098;2023-04-25T15:13:49;3.00;;;1.67;;
42196;SDS011;27866;48.146;17.098;2023-04-25T15:18:00;5.95;;;1.45;;
42196;SDS011;27866;48.146;17.098;2023-04-25T15:22:12;3.08;;;1.65;;
42196;SDS011;27866;48.146;17.098;2023-04-25T15:26:24;2.28;;;1.50;;
42196;SDS011;27866;48.146;17.098;2023-04-25T15:30:35;2.22;;;1.42;;
42196;SDS011;27866;48.146;17.098;2023-04-25T15:34:47;3.45;;;1.38;;
42196;SDS011;27866;48.146;17.098;2023-04-25T15:38:59;2.13;;;1.63;;
42196;SDS011;27866;48.146;17.098;2023-04-25T15:43:10;3.63;;;2.10;;
42196;SDS011;27866;48.146;17.098;2023-04-25T15:47:25;2.55;;;1.60;;
42196;SDS011;27866;48.146;17.098;2023-04-25T15:51:36;3.13;;;1.60;;
42196;SDS011;27866;48.146;17.098;2023-04-25T15:55:47;1.98;;;1.55;;
42196;SDS011;27866;48.146;17.098;2023-04-25T16:00:04;2.15;;;1.45;;
42196;SDS011;27866;48.146;17.098;2023-04-25T16:04:23;3.42;;;1.35;;
42196;SDS011;27866;48.146;17.098;2023-04-25T16:08:36;2.13;;;1.42;;
42196;SDS011;27866;48.146;17.098;2023-04-25T16:12:47;1.85;;;1.50;;
42196;SDS011;27866;48.146;17.098;2023-04-25T16:16:59;2.00;;;1.48;;
42196;SDS011;27866;48.146;17.098;2023-04-25T16:21:11;3.03;;;1.70;;
42196;SDS011;27866;48.146;17.098;2023-04-25T16:25:25;2.70;;;1.67;;
42196;SDS011;27866;48.146;17.098;2023-04-25T16:29:37;1.60;;;1.50;;
42196;SDS011;27866;48.146;17.098;2023-04-25T16:33:50;2.30;;;1.52;;
42196;SDS011;27866;48.146;17.098;2023-04-25T16:38:02;3.08;;;1.85;;
42196;SDS011;27866;48.146;17.098;2023-04-25T16:42:14;2.22;;;1.42;;
42196;SDS011;27866;48.146;17.098;2023-04-25T16:46:26;1.70;;;1.35;;
42196;SDS011;27866;48.146;17.098;2023-04-25T16:50:37;5.05;;;1.65;;
42196;SDS011;27866;48.146;17.098;2023-04-25T16:54:48;5.03;;;2.28;;
42196;SDS011;27866;48.146;17.098;2023-04-25T16:59:00;4.28;;;2.20;;
42196;SDS011;27866;48.146;17.098;2023-04-25T17:03:11;4.68;;;2.42;;
42196;SDS011;27866;48.146;17.098;2023-04-25T17:07:23;4.65;;;2.67;;
42196;SDS011;27866;48.146;17.098;2023-04-25T17:11:34;8.32;;;2.70;;
42196;SDS011;27866;48.146;17.098;2023-04-25T17:15:46;5.40;;;2.70;;
42196;SDS011;27866;48.146;17.098;2023-04-25T17:19:57;5.13;;;2.80;;
42196;SDS011;27866;48.146;17.098;2023-04-25T17:24:08;5.10;;;3.20;;
42196;SDS011;27866;48.146;17.098;2023-04-25T17:28:19;4.47;;;2.92;;
42196;SDS011;27866;48.146;17.098;2023-04-25T17:32:31;3.65;;;2.42;;
42196;SDS011;27866;48.146;17.098;2023-04-25T17:36:45;3.30;;;2.30;;
42196;SDS011;27866;48.146;17.098;2023-04-25T17:40:57;2.90;;;2.00;;
42196;SDS011;27866;48.146;17.098;2023-04-25T17:45:09;5.05;;;2.45;;
42196;SDS011;27866;48.146;17.098;2023-04-25T17:49:22;6.13;;;3.00;;
42196;SDS011;27866;48.146;17.098;2023-04-25T17:53:34;4.85;;;2.88;;
42196;SDS011;27866;48.146;17.098;2023-04-25T17:57:45;4.78;;;2.58;;
42196;SDS011;27866;48.146;17.098;2023-04-25T18:01:57;6.53;;;3.00;;
42196;SDS011;27866;48.146;17.098;2023-04-25T18:06:10;5.78;;;3.15;;
42196;SDS011;27866;48.146;17.098;2023-04-25T18:10:21;4.32;;;2.63;;
42196;SDS011;27866;48.146;17.098;2023-04-25T18:14:32;5.53;;;2.35;;
42196;SDS011;27866;48.146;17.098;2023-04-25T18:18:46;6.60;;;2.53;;
42196;SDS011;27866;48.146;17.098;2023-04-25T18:23:02;4.07;;;2.45;;
42196;SDS011;27866;48.146;17.098;2023-04-25T18:27:13;4.15;;;2.92;;
42196;SDS011;27866;48.146;17.098;2023-04-25T18:31:24;4.30;;;2.85;;
42196;SDS011;27866;48.146;17.098;2023-04-25T18:35:36;4.45;;;3.20;;
42196;SDS011;27866;48.146;17.098;2023-04-25T18:39:47;4.85;;;3.00;;
42196;SDS011;27866;48.146;17.098;2023-04-25T18:43:58;5.55;;;3.10;;
42196;SDS011;27866;48.146;17.098;2023-04-25T18:48:14;4.72;;;2.92;;
42196;SDS011;27866;48.146;17.098;2023-04-25T18:52:25;8.13;;;3.70;;
42196;SDS011;27866;48.146;17.098;2023-04-25T18:56:36;7.00;;;3.30;;
42196;SDS011;27866;48.146;17.098;2023-04-25T19:00:48;5.75;;;3.22;;
42196;SDS011;27866;48.146;17.098;2023-04-25T19:04:59;4.72;;;3.42;;
42196;SDS011;27866;48.146;17.098;2023-04-25T19:09:10;6.25;;;4.03;;
42196;SDS011;27866;48.146;17.098;2023-04-25T19:13:29;6.97;;;3.70;;
42196;SDS011;27866;48.146;17.098;2023-04-25T19:17:41;7.40;;;3.88;;
42196;SDS011;27866;48.146;17.098;2023-04-25T19:21:53;6.70;;;3.53;;
42196;SDS011;27866;48.146;17.098;2023-04-25T19:26:04;6.88;;;4.32;;
42196;SDS011;27866;48.146;17.098;2023-04-25T19:30:15;7.90;;;4.20;;
42196;SDS011;27866;48.146;17.098;2023-04-25T19:34:26;8.55;;;4.32;;
42196;SDS011;27866;48.146;17.098;2023-04-25T19:38:38;5.38;;;4.00;;
42196;SDS011;27866;48.146;17.098;2023-04-25T19:42:49;6.82;;;4.38;;
42196;SDS011;27866;48.146;17.098;2023-04-25T19:47:00;5.90;;;4.15;;
42196;SDS011;27866;48.146;17.098;2023-04-25T19:51:12;6.88;;;4.50;;
42196;SDS011;27866;48.146;17.098;2023-04-25T19:55:23;6.88;;;4.03;;
42196;SDS011;27866;48.146;17.098;2023-04-25T19:59:34;5.97;;;4.38;;
42196;SDS011;27866;48.146;17.098;2023-04-25T20:03:46;5.68;;;4.45;;
42196;SDS011;27866;48.146;17.098;2023-04-25T20:12:12;6.57;;;4.57;;
42196;SDS011;27866;48.146;17.098;2023-04-25T20:16:24;7.75;;;4.72;;
42196;SDS011;27866;48.146;17.098;2023-04-25T20:20:35;6.80;;;5.47;;
42196;SDS011;27866;48.146;17.098;2023-04-25T20:24:46;6.57;;;5.00;;
42196;SDS011;27866;48.146;17.098;2023-04-25T20:28:58;6.68;;;4.93;;
42196;SDS011;27866;48.146;17.098;2023-04-25T20:33:11;7.30;;;5.75;;
42196;SDS011;27866;48.146;17.098;2023-04-25T20:37:22;8.05;;;5.80;;
42196;SDS011;27866;48.146;17.098;2023-04-25T20:41:33;7.63;;;5.80;;
42196;SDS011;27866;48.146;17.098;2023-04-25T20:45:44;7.32;;;5.78;;
42196;SDS011;27866;48.146;17.098;2023-04-25T20:49:56;8.57;;;6.47;;
42196;SDS011;27866;48.146;17.098;2023-04-25T20:54:08;9.25;;;6.15;;
42196;SDS011;27866;48.146;17.098;2023-04-25T20:58:20;7.47;;;6.45;;
42196;SDS011;27866;48.146;17.098;2023-04-25T21:02:31;11.07;;;6.72;;
42196;SDS011;27866;48.146;17.098;2023-04-25T21:06:42;8.25;;;6.93;;
42196;SDS011;27866;48.146;17.098;2023-04-25T21:10:53;10.95;;;7.30;;
42196;SDS011;27866;48.146;17.098;2023-04-25T21:15:05;9.02;;;7.38;;
42196;SDS011;27866;48.146;17.098;2023-04-25T21:19:17;9.23;;;7.57;;
42196;SDS011;27866;48.146;17.098;2023-04-25T21:23:28;10.75;;;8.20;;
42196;SDS011;27866;48.146;17.098;2023-04-25T21:27:40;10.35;;;7.55;;
42196;SDS011;27866;48.146;17.098;2023-04-25T21:31:51;10.02;;;8.10;;
42196;SDS011;27866;48.146;17.098;2023-04-25T21:36:02;10.65;;;8.88;;
42196;SDS011;27866;48.146;17.098;2023-04-25T21:40:14;11.90;;;9.07;;
42196;SDS011;27866;48.146;17.098;2023-04-25T21:44:25;17.13;;;10.38;;
42196;SDS011;27866;48.146;17.098;2023-04-25T21:48:39;13.10;;;10.10;;
42196;SDS011;27866;48.146;17.098;2023-04-25T21:52:51;13.20;;;9.43;;
42196;SDS011;27866;48.146;17.098;2023-04-25T21:57:03;15.35;;;10.82;;
42196;SDS011;27866;48.146;17.098;2023-04-25T22:01:14;14.75;;;10.00;;
42196;SDS011;27866;48.146;17.098;2023-04-25T22:05:25;13.55;;;10.45;;
42196;SDS011;27866;48.146;17.098;2023-04-25T22:09:38;13.18;;;9.43;;
42196;SDS011;27866;48.146;17.098;2023-04-25T22:13:50;11.65;;;9.35;;
42196;SDS011;27866;48.146;17.098;2023-04-25T22:18:01;16.05;;;10.68;;
42196;SDS011;27866;48.146;17.098;2023-04-25T22:22:13;16.88;;;10.82;;
42196;SDS011;27866;48.146;17.098;2023-04-25T22:26:25;14.00;;;10.35;;
42196;SDS011;27866;48.146;17.098;2023-04-25T22:30:36;14.95;;;9.63;;
42196;SDS011;27866;48.146;17.098;2023-04-25T22:34:47;15.68;;;9.88;;
42196;SDS011;27866;48.146;17.098;2023-04-25T22:38:59;14.15;;;9.57;;
42196;SDS011;27866;48.146;17.098;2023-04-25T22:43:10;13.18;;;8.63;;
42196;SDS011;27866;48.146;17.098;2023-04-25T22:47:21;12.32;;;8.43;;
42196;SDS011;27866;48.146;17.098;2023-04-25T22:51:33;11.40;;;8.93;;
42196;SDS011;27866;48.146;17.098;2023-04-25T22:55:53;12.98;;;9.38;;
42196;SDS011;27866;48.146;17.098;2023-04-25T23:00:07;15.80;;;9.23;;
42196;SDS011;27866;48.146;17.098;2023-04-25T23:04:25;12.50;;;7.85;;
42196;SDS011;27866;48.146;17.098;2023-04-25T23:08:36;10.45;;;7.30;;
42196;SDS011;27866;48.146;17.098;2023-04-25T23:12:47;12.10;;;7.30;;
42196;SDS011;27866;48.146;17.098;2023-04-25T23:16:58;11.95;;;7.78;;
42196;SDS011;27866;48.146;17.098;2023-04-25T23:21:10;10.48;;;7.10;;
42196;SDS011;27866;48.146;17.098;2023-04-25T23:25:21;8.75;;;6.57;;
42196;SDS011;27866;48.146;17.098;2023-04-25T23:29:33;9.23;;;6.70;;
42196;SDS011;27866;48.146;17.098;2023-04-25T23:33:45;11.48;;;7.40;;
42196;SDS011;27866;48.146;17.098;2023-04-25T23:37:56;12.23;;;6.80;;
42196;SDS011;27866;48.146;17.098;2023-04-25T23:42:07;9.18;;;7.38;;
42196;SDS011;27866;48.146;17.098;2023-04-25T23:46:19;14.13;;;7.70;;
42196;SDS011;27866;48.146;17.098;2023-04-25T23:50:30;9.55;;;6.68;;
42196;SDS011;27866;48.146;17.098;2023-04-25T23:54:41;11.50;;;6.63;;
42196;SDS011;27866;48.146;17.098;2023-04-25T23:58:53;12.38;;;6.38;;
